Route Details

Aircraft Information
Group: North America Fleet
Types: B738, B752, B762, B763
Route Data
Distance: 282nm
Duration: 1h 30m
Origin METAR: KPHX 010451Z 23005KT 10SM FEW090 FEW250 12/07 A3000 RMK AO2 SLP155 T01170067
Dest. METAR: KONT 010453Z 03013G19KT 10SM CLR 13/M11 A3008 RMK AO2 PK WND 04031/0409 SLP186 T01331111
Freight Data
(for Feb 1, 2023)
Load Factor:
63%
Manifested Cargo: 57,576lbs
Financial History
Total Freight: 220,389lbs
Average Load: 0lbs/flt
Fuel Used: 20,571lbs
Avg. Fuel Used: 0lbs/flt
Fuel Expense: $9,975
Avg. Fuel Expense: $0
Avg. Fuel Cost: $0/lbs
Total Gross Income: $542,157
Pilot Pay: $946
Total Expenses: $109,999
Total Revenue: $421,086
Average Revenue: $0

Capitol Logistics 338




KPHX
Phoenix Sky Harbor International Airport
Phoenix, Arizona
KONT
Ontario International Airport
Ontario, California

Activity Log

Date Flight Route Aircraft Duration
01/05/2023 CPX338 KEENS2 HRRBR PHRED SCBBY2 B763 1h 02m
08/25/2022 CPX338 KEENS2 HRRBR DCT PHRED SCBBY2 B738 0h 56m
07/18/2022 CPX338 KEENS2 HRRBR PHRED SCBBY2 B763 0h 51m
07/17/2022 CPX338 KEENS2 HRRBR DCT PHRED SCBBY2 B763 0h 59m